Αρχική σελίδα
METAR-TAF:

METAR-TAF

Αεροδρόμια :

Salina Municipal Airport

Salina, Κάνσας, Ηνωμένες Πολιτείες Αμερικής

γεωγραφικό πλάτος: 38-46-48N, γεωγραφικό μήκος: 097-38-39W, υψόμετρο: 387 μ

Παρών καιρός

Η αναφορά έγινε 35 λεπτά πριν, στις 07:53 UTC
Άνεμος 4 kt από Α
Θερμοκρασία 26°C
Υγρασία 70%
Πίεση 1011 hPa
Ορατότητα: 16.1 χλμ
Καθαρός ουρανός

METAR: KSLN 200753Z AUTO 09004KT 10SM CLR 26/20 A2986 RMK AO2 SLP098 T02610200

Χρόνος: 03:28 (08:28 UTC)

Πρόγνωση Καιρού

Η αναφορά έγινε 3 ώρες και 6 λεπτά πριν, στις 05:22 UTC
Η πρόγνωση ισχύει από τις 20 στις 06 UTC έως τις 21 στις 06 UTC
Άνεμος 4 kt από μεταβλητές κατευθύνσεις
Ορατότητα: 10 χλμ
Διάσπαρτα νέφη σε ύψος 10000 πόδια
Από 20 στις 1200 UTC
Άνεμος 8 kt από Α/BA
Ορατότητα: 10 χλμ
Λίγα νέφη σε ύψος 10000 πόδια

TAF: KSLN 200522Z 2006/2106 VRB04KT P6SM SCT100 FM201200 06008KT P6SM FEW100

Μετεωρολογικές αναφορές και προγνώσεις για περισσότερα από 4000 αεροδρόμια (δελτία METAR και TAF).

Οι διαθέσιμοι σταθμοί απεικονίζονται στο χάρτη με κίτρινες και κόκκινες κουκκίδες.

Μετακινήστε το ποντίκι πάνω από τις κουκκίδες για να δείτε το όνομα του σταθμού.

Στη συνέχεια, κάντε κλικ για να δείτε τις μετεωρολογικές αναφορές και τις προγνώσεις καιρού.

Για να αλλάξετε το χάρτη: κάντε κλικ στα πράσινα κουμπιά με τον μαύρο σταυρό για να ζουμάρετε, στο πράσινο κουμπί με την παύλα για να αφαιρέσετε το ζουμ ή στα πράσινα βέλη για να αντιπαραβάλλετε χάρτες.


METAR-TAF: